Capitol Logistics 248


KPVD
Theodore Francis Green State Airport
Providence, Rhode Island, US
KMIA
Miami International Airport
Miami, Florida, US

Activity Log

Date Flight Route Aircraft Duration
02/12/2020 CPX248 TRAIT J55 HTO J174 SWL J121 ORF J174 DIW AR19 JENKS AR22 JORAY HILEY7 B763 2h 43m
03/30/2019 CPX248 JUMPR RIFLE J174 SWL CEBEE WETRO DIW AR22 JORAY HILEY7 B763 3h 06m

Route Details

Aircraft Information
Primary: Boeing 767-300BDSF
Backup: Not Available
Route Data
Distance: 1351nm
Sched. Duration: 3h 14m
Avg. Duration: 2h 75m (-40m)
Times Flown: 2
Recm'd Route: JUMPR RIFLE J174 SWL CEBEE WETRO DIW AR22 JORAY HILEY7
Planned Altitude: 36,000ft
Origin Wx: KPVD 272251Z 27019G25KT 10SM BKN060 04/M08 A2952 RMK AO2 PK WND 28027/2233 SLP998 T00391083
Dest. Wx: KMIA 272253Z 34006KT 10SM FEW040 SCT160 19/04 A3014 RMK AO2 SLP207 T01890044
Notes:

Financial History
Total Freight: 158,968lbs
Average Load: 79,484lbs/flt
Fuel Used: 55,566lbs
Avg. Fuel Used: 27,783lbs/flt
Fuel Expense: $52,788
Avg. Fuel Expense: $26,394
Avg. Fuel Cost: $0.95/lbs
Total Gross Income: $218,081
Pilot Pay: $308
Total Expenses: $23,657
Total Revenue: $140,591
Average Revenue: $109,040.51